Delaware County Johnson Field
KMIE : now visible

Airfield :











YOU CAN JOIN US ON...

 
LOGIN :

Register | Disclaimer

   EN    FR    IT 

 









Legend :    VFR   Marginal VFR   IFR   Intensive IFR   Very Intensive IFR
Visi :
Ceiling :
>= 8 km
>= 3000ft
5 to 8 km
1000 to 3000 ft
1500m to 5 km
500 to 1000 ft
800 to 1500m
200 to 500 ft
< 800m
< 200 ft
Symbols :   Thunderstorms  Fog  Heavy snow  Heavy precipitations  Wind > 20 kt






- Airport Elevation : 937 ft
- IATA code : MIE


KMIE - Delaware County Johnson Field

CURRENT METAR :
  • 221153Z 19006KT 10SM CLR 17/14 A3014 RMK AO2 SLP200 70014 T01670139 10172 20139 53007

EXPIRED METARs :
  • 221053Z 19006KT 10SM CLR 17/14 A3013 RMK AO2 SLP198 T01670144
  • 220959Z 16004KT 3SM BR CLR 15/13 A3012 RMK AO2 T01500133
  • 220953Z 16003KT 1 3/4SM BR CLR 15/13 A3012 RMK AO2 SLP195 T01500128
  • 220938Z AUTO 14003KT 1/2SM FG VV003 14/12 A3012 RMK AO2 T01390122

TAF N/A
KZID FIR / North America



MET'MAP, your aeronautical weather chart ! - Copyright ORBIFLY December 2007 - Disclaimer

ORBIFLY MET'MAP TEAM :

Programming & Development : Alexandra Zaïnal
Concept & original design : Baudouin d'Aumeries
Assistance for programming : Marc-Olivier Méhu
Technical & hardware support : Manuel Goepfert

Contact : metmap@orbifly.com




SOURCES & CREDITS :

   NOAA       Earth
Advisory